Time;durP1;ratioP1;P1;durP2;ratioP2;P2;SDS_P1;SDS_P2;PMS_P1;PMS_P2;Temp;Humidity;BMP_temperature;BMP_pressure;BME280_temperature;BME280_humidity;BME280_pressure;Samples;Min_cycle;Max_cycle;Signal;HPM_P1;HPM_P2
2020/12/12 00:00:52;;;;;;;34.27;17.57;;;1.90;99.90;;;;;;5087782;28;20449;-52
2020/12/12 00:03:19;;;;;;;30.27;16.50;;;1.80;99.90;;;;;;5088047;28;20983;-51
2020/12/12 00:05:45;;;;;;;35.77;19.77;;;1.80;99.90;;;;;;5092019;28;20502;-51
2020/12/12 00:08:12;;;;;;;37.53;18.43;;;1.90;99.90;;;;;;5091438;28;20449;-51
2020/12/12 00:10:38;;;;;;;33.23;17.70;;;2.00;99.90;;;;;;5091712;28;20870;-51
2020/12/12 00:13:07;;;;;;;35.67;17.37;;;1.90;99.90;;;;;;5091536;28;20454;-51
2020/12/12 00:15:35;;;;;;;32.50;17.03;;;1.80;99.90;;;;;;5078174;28;20454;-51
2020/12/12 00:18:01;;;;;;;30.70;15.50;;;1.80;99.90;;;;;;5091891;28;20551;-51
2020/12/12 00:20:28;;;;;;;33.93;16.60;;;1.90;99.90;;;;;;5089597;28;20893;-51
2020/12/12 00:22:55;;;;;;;33.27;17.87;;;1.90;99.90;;;;;;5091353;28;20494;-51
2020/12/12 00:25:21;;;;;;;35.63;18.03;;;1.90;99.90;;;;;;5091495;28;20511;-51
2020/12/12 00:27:48;;;;;;;29.27;15.23;;;1.80;99.90;;;;;;5077606;28;20450;-51
2020/12/12 00:30:14;;;;;;;24.03;13.33;;;1.70;99.90;;;;;;5090906;28;20860;-51
2020/12/12 00:32:42;;;;;;;27.00;12.97;;;1.60;99.90;;;;;;5090905;28;20449;-51
2020/12/12 00:35:08;;;;;;;23.27;11.17;;;1.60;99.90;;;;;;5090646;28;20527;-51
2020/12/12 00:37:35;;;;;;;23.73;11.80;;;1.70;99.90;;;;;;5090961;28;20454;-51
2020/12/12 00:40:01;;;;;;;24.10;13.27;;;1.80;99.90;;;;;;5090428;28;20481;-51
2020/12/12 00:42:27;;;;;;;25.60;14.27;;;1.70;99.90;;;;;;5090954;28;20460;-51
2020/12/12 00:44:54;;;;;;;29.70;13.77;;;1.40;99.90;;;;;;5090670;28;20480;-50
2020/12/12 00:47:20;;;;;;;28.60;14.67;;;1.20;99.90;;;;;;5091009;28;20453;-51
2020/12/12 00:49:48;;;;;;;31.10;14.70;;;1.10;99.90;;;;;;5090615;28;20943;-51
2020/12/12 00:52:14;;;;;;;32.13;15.90;;;1.10;99.90;;;;;;5090277;28;20957;-51
2020/12/12 00:54:41;;;;;;;26.77;14.10;;;1.20;99.90;;;;;;5090657;28;20523;-51
2020/12/12 00:57:09;;;;;;;27.30;13.17;;;1.20;99.90;;;;;;5090585;28;21025;-51
2020/12/12 00:59:36;;;;;;;31.50;15.33;;;1.30;99.90;;;;;;5090582;28;20496;-51
2020/12/12 01:02:02;;;;;;;40.93;21.93;;;1.40;99.90;;;;;;5090514;28;21028;-51
2020/12/12 01:04:29;;;;;;;41.97;22.40;;;1.50;99.90;;;;;;5090481;28;20489;-51
2020/12/12 01:06:56;;;;;;;31.43;15.90;;;1.50;99.90;;;;;;5090213;28;20458;-52
2020/12/12 01:09:23;;;;;;;31.93;16.30;;;1.70;99.90;;;;;;5090571;28;20498;-51
2020/12/12 01:11:51;;;;;;;36.17;16.83;;;1.80;99.90;;;;;;5089967;28;20453;-51
2020/12/12 01:14:17;;;;;;;37.90;18.50;;;1.70;99.90;;;;;;5089904;28;20561;-51
2020/12/12 01:16:44;;;;;;;35.50;16.00;;;1.70;99.90;;;;;;5090826;28;20456;-51
2020/12/12 01:19:10;;;;;;;51.07;20.80;;;1.80;99.90;;;;;;5089697;28;20473;-51
2020/12/12 01:21:37;;;;;;;40.00;17.60;;;1.90;99.90;;;;;;5090408;28;20516;-51
2020/12/12 01:24:05;;;;;;;43.77;19.70;;;1.90;99.90;;;;;;5089942;28;20470;-51
2020/12/12 01:26:32;;;;;;;44.17;22.67;;;1.80;99.90;;;;;;5090561;28;20525;-51
2020/12/12 01:29:00;;;;;;;44.00;20.43;;;1.90;99.90;;;;;;5090457;28;20522;-51
2020/12/12 01:31:27;;;;;;;39.30;18.77;;;1.90;99.90;;;;;;5091530;28;20449;-51
2020/12/12 01:33:54;;;;;;;43.33;18.30;;;1.80;99.90;;;;;;5094513;28;20538;-51
2020/12/12 01:36:20;;;;;;;45.77;21.27;;;1.70;99.90;;;;;;5094298;28;20453;-51
2020/12/12 01:38:47;;;;;;;50.40;22.73;;;1.70;99.90;;;;;;5094379;28;20445;-51
2020/12/12 01:41:16;;;;;;;50.90;21.43;;;1.70;99.90;;;;;;5094260;28;20808;-51
2020/12/12 01:43:50;;;;;;;68.20;34.30;;;1.70;99.90;;;;;;5093202;28;20891;-51
2020/12/12 01:46:26;;;;;;;46.97;22.23;;;1.90;99.90;;;;;;5094245;28;20485;-50
2020/12/12 01:48:54;;;;;;;55.50;23.00;;;1.90;99.90;;;;;;5094130;28;20474;-50
2020/12/12 01:51:21;;;;;;;49.27;20.47;;;1.70;99.90;;;;;;5094369;28;20453;-51
2020/12/12 01:53:49;;;;;;;61.17;28.37;;;1.70;99.90;;;;;;5093671;28;20549;-51
2020/12/12 01:56:18;;;;;;;51.20;20.80;;;1.80;99.90;;;;;;5093480;28;20532;-51
2020/12/12 01:58:45;;;;;;;52.73;23.60;;;1.80;99.90;;;;;;5094270;28;20448;-51
2020/12/12 02:01:13;;;;;;;55.53;24.73;;;1.90;99.90;;;;;;5092968;28;20873;-51
2020/12/12 02:03:42;;;;;;;51.50;21.73;;;1.90;99.90;;;;;;5077567;28;20538;-51
2020/12/12 02:06:12;;;;;;;52.13;23.60;;;2.00;99.90;;;;;;5094254;28;20532;-51
2020/12/12 02:08:39;;;;;;;50.17;22.90;;;2.00;99.90;;;;;;5093906;28;20571;-51
2020/12/12 02:11:10;;;;;;;50.23;21.73;;;2.00;99.90;;;;;;5093500;28;20505;-51
2020/12/12 02:13:38;;;;;;;54.10;22.10;;;2.10;99.90;;;;;;5093701;28;20469;-51
2020/12/12 02:16:05;;;;;;;57.57;23.47;;;2.10;99.90;;;;;;5093399;28;20484;-51
2020/12/12 02:18:31;;;;;;;48.47;22.10;;;2.00;99.90;;;;;;5093262;28;20510;-51
2020/12/12 02:21:01;;;;;;;60.33;26.93;;;2.10;99.90;;;;;;5093505;28;20484;-51
2020/12/12 02:23:28;;;;;;;52.83;22.30;;;1.90;99.90;;;;;;5093344;28;20869;-51
2020/12/12 02:25:56;;;;;;;51.60;23.20;;;1.90;99.90;;;;;;5093529;28;20524;-51
2020/12/12 02:28:25;;;;;;;56.50;23.67;;;2.00;99.90;;;;;;5093457;28;20568;-50
2020/12/12 02:30:51;;;;;;;54.67;22.87;;;1.90;99.90;;;;;;5093352;28;20507;-50
2020/12/12 02:33:18;;;;;;;65.33;29.90;;;2.00;99.90;;;;;;5093179;28;20498;-50
2020/12/12 02:35:45;;;;;;;65.87;28.57;;;2.10;99.90;;;;;;5090638;28;20476;-51
2020/12/12 02:38:11;;;;;;;50.83;22.30;;;2.00;99.90;;;;;;5092908;28;20507;-51
2020/12/12 02:40:39;;;;;;;55.43;24.40;;;2.10;99.90;;;;;;5092457;28;20477;-51
2020/12/12 02:43:11;;;;;;;57.90;26.57;;;2.20;99.90;;;;;;5092105;28;20475;-51
2020/12/12 02:45:38;;;;;;;60.73;26.13;;;2.10;99.90;;;;;;5092720;28;20536;-51
2020/12/12 02:48:04;;;;;;;52.57;25.10;;;2.30;99.90;;;;;;5092874;28;20856;-51
2020/12/12 02:50:32;;;;;;;54.83;24.33;;;2.30;99.90;;;;;;5093058;28;20448;-51
2020/12/12 02:52:59;;;;;;;45.83;20.90;;;2.40;99.90;;;;;;5074636;28;20484;-51
2020/12/12 02:55:25;;;;;;;50.87;22.87;;;2.30;99.90;;;;;;5092573;28;20462;-51
2020/12/12 02:57:53;;;;;;;47.20;22.33;;;2.10;99.90;;;;;;5093533;28;20456;-50
2020/12/12 03:00:23;;;;;;;63.40;25.90;;;1.90;99.90;;;;;;5093051;28;20478;-51
2020/12/12 03:02:49;;;;;;;59.23;28.33;;;2.00;99.90;;;;;;5091748;28;20495;-51
2020/12/12 03:05:17;;;;;;;56.57;23.27;;;2.10;99.90;;;;;;5092608;28;20870;-51
2020/12/12 03:07:44;;;;;;;49.23;22.57;;;2.20;99.90;;;;;;5092410;28;20444;-51
2020/12/12 03:10:10;;;;;;;59.77;25.03;;;2.20;99.90;;;;;;5092475;28;20442;-51
2020/12/12 03:12:38;;;;;;;63.23;27.20;;;2.10;99.90;;;;;;5092962;28;20446;-50
2020/12/12 03:15:06;;;;;;;47.33;20.93;;;2.30;99.90;;;;;;5092545;28;20470;-51
2020/12/12 03:17:33;;;;;;;52.67;22.70;;;2.10;99.90;;;;;;5092600;28;20461;-51
2020/12/12 03:19:59;;;;;;;69.27;31.10;;;2.00;99.90;;;;;;5091853;28;20986;-51
2020/12/12 03:22:26;;;;;;;80.53;33.27;;;2.00;99.90;;;;;;5092470;28;20450;-51
2020/12/12 03:24:52;;;;;;;50.60;22.33;;;2.00;99.90;;;;;;5092066;28;20827;-51
2020/12/12 03:27:19;;;;;;;47.30;22.83;;;2.20;99.90;;;;;;5092585;28;20479;-51
2020/12/12 03:29:45;;;;;;;53.20;23.60;;;2.20;99.90;;;;;;5092008;28;20459;-51
2020/12/12 03:32:13;;;;;;;45.33;20.80;;;2.10;99.90;;;;;;5092016;28;20450;-51
2020/12/12 03:34:40;;;;;;;46.70;22.97;;;2.10;99.90;;;;;;5092062;28;20445;-51
2020/12/12 03:37:07;;;;;;;47.10;23.20;;;2.20;99.90;;;;;;5092222;28;20499;-51
2020/12/12 03:39:34;;;;;;;47.90;21.87;;;2.20;99.90;;;;;;5091519;28;20564;-51
2020/12/12 03:42:00;;;;;;;46.43;20.80;;;2.10;99.90;;;;;;5092123;28;20458;-51
2020/12/12 03:44:27;;;;;;;40.43;19.10;;;2.00;99.90;;;;;;5091614;28;20472;-51
2020/12/12 03:46:53;;;;;;;48.83;23.30;;;2.10;99.90;;;;;;5091386;28;20454;-51
2020/12/12 03:49:21;;;;;;;40.50;20.10;;;2.10;99.90;;;;;;5092164;28;20442;-51
2020/12/12 03:51:47;;;;;;;46.00;19.63;;;2.20;99.90;;;;;;5091497;28;20797;-51
2020/12/12 03:54:14;;;;;;;36.63;18.20;;;2.30;99.90;;;;;;5091722;28;20501;-51
2020/12/12 03:56:40;;;;;;;37.87;17.90;;;2.20;99.90;;;;;;5091986;28;20450;-51
2020/12/12 03:59:07;;;;;;;39.10;17.03;;;2.30;99.90;;;;;;5091196;28;20982;-51
2020/12/12 04:01:33;;;;;;;37.60;17.90;;;2.30;99.90;;;;;;5090720;28;20514;-51
2020/12/12 04:04:00;;;;;;;37.20;17.37;;;2.30;99.90;;;;;;5091344;28;20913;-51
2020/12/12 04:06:27;;;;;;;40.67;17.00;;;2.30;99.90;;;;;;5090949;28;20446;-51
2020/12/12 04:08:54;;;;;;;43.93;19.33;;;2.30;99.90;;;;;;5091670;28;20476;-51
2020/12/12 04:11:20;;;;;;;42.20;20.00;;;2.40;99.90;;;;;;5091689;28;20462;-51
2020/12/12 04:13:47;;;;;;;36.03;17.70;;;2.40;99.90;;;;;;5091479;28;20477;-50
2020/12/12 04:16:13;;;;;;;38.07;16.80;;;2.30;99.90;;;;;;5091408;28;20507;-51
2020/12/12 04:18:40;;;;;;;39.40;18.10;;;2.30;99.90;;;;;;5091414;28;20954;-51
2020/12/12 04:21:07;;;;;;;39.97;18.63;;;2.30;99.90;;;;;;5090936;28;20484;-50
2020/12/12 04:23:35;;;;;;;42.47;19.77;;;2.30;99.90;;;;;;5090586;28;21126;-50
2020/12/12 04:26:02;;;;;;;42.90;19.30;;;2.30;99.90;;;;;;5090918;28;20540;-51
2020/12/12 04:28:29;;;;;;;43.03;18.37;;;2.20;99.90;;;;;;5090812;28;20450;-51
2020/12/12 04:30:56;;;;;;;45.60;19.30;;;2.10;99.90;;;;;;5091342;28;20442;-51
2020/12/12 04:33:22;;;;;;;41.50;18.10;;;2.10;99.90;;;;;;5090579;28;20446;-51
2020/12/12 04:35:49;;;;;;;54.70;19.67;;;2.10;99.90;;;;;;5090671;28;20991;-51
2020/12/12 04:38:15;;;;;;;45.80;20.90;;;2.10;99.90;;;;;;5084303;28;20506;-51
2020/12/12 04:40:43;;;;;;;43.57;19.13;;;2.10;99.90;;;;;;5086182;28;20485;-50
2020/12/12 04:43:10;;;;;;;47.50;20.37;;;2.10;99.90;;;;;;5083817;28;20445;-51
2020/12/12 04:45:39;;;;;;;46.80;19.77;;;2.20;99.90;;;;;;5083380;28;20450;-51
2020/12/12 04:48:06;;;;;;;38.90;18.37;;;2.20;99.90;;;;;;5076640;28;21148;-51
2020/12/12 04:50:32;;;;;;;43.07;19.97;;;2.20;99.90;;;;;;5077960;28;20515;-51
2020/12/12 04:53:13;;;;;;;40.17;18.00;;;2.30;99.90;;;;;;5089990;28;20454;-51
2020/12/12 04:55:46;;;;;;;40.43;17.57;;;2.20;99.90;;;;;;5081616;28;20464;-51
2020/12/12 04:58:15;;;;;;;37.70;17.00;;;2.30;99.90;;;;;;5079769;28;20536;-51
2020/12/12 05:00:46;;;;;;;49.10;20.13;;;2.30;99.90;;;;;;5080994;28;20473;-50
2020/12/12 05:03:14;;;;;;;48.77;19.30;;;2.20;99.90;;;;;;5089493;28;20445;-50
2020/12/12 05:05:41;;;;;;;41.27;17.93;;;2.20;99.90;;;;;;5089241;28;20491;-50
2020/12/12 05:08:09;;;;;;;46.60;21.53;;;2.30;99.90;;;;;;5089961;28;20491;-51
2020/12/12 05:10:41;;;;;;;47.43;19.73;;;2.30;99.90;;;;;;5089441;28;20874;-51
2020/12/12 05:13:19;;;;;;;45.50;19.30;;;2.10;99.90;;;;;;5076767;28;20498;-51
2020/12/12 05:15:47;;;;;;;42.60;18.90;;;2.20;99.90;;;;;;5070810;28;20449;-51
2020/12/12 05:18:13;;;;;;;48.63;20.17;;;2.20;99.90;;;;;;5070969;28;20516;-50
2020/12/12 05:20:40;;;;;;;52.90;22.27;;;2.20;99.90;;;;;;5070561;28;20898;-51
2020/12/12 05:23:11;;;;;;;44.33;20.13;;;2.10;99.90;;;;;;5070761;28;20467;-51
2020/12/12 05:25:38;;;;;;;44.87;19.43;;;2.00;99.90;;;;;;5070731;28;20442;-50
2020/12/12 05:28:06;;;;;;;42.97;19.37;;;2.10;99.90;;;;;;5070885;28;20450;-51
2020/12/12 05:30:35;;;;;;;51.50;21.53;;;2.10;99.90;;;;;;5072380;28;20446;-51
2020/12/12 05:33:02;;;;;;;51.07;21.77;;;1.90;99.90;;;;;;5073965;28;20453;-51
2020/12/12 05:35:28;;;;;;;58.23;22.50;;;1.90;99.90;;;;;;5070376;28;20465;-51
2020/12/12 05:37:55;;;;;;;49.10;21.23;;;1.80;99.90;;;;;;5070630;28;20450;-51
2020/12/12 05:40:21;;;;;;;50.97;21.80;;;1.80;99.90;;;;;;5070320;28;20478;-51
2020/12/12 05:42:48;;;;;;;52.53;21.53;;;1.80;99.90;;;;;;5076281;28;20828;-51
2020/12/12 05:45:15;;;;;;;53.70;21.50;;;1.80;99.90;;;;;;5078155;28;21035;-50
2020/12/12 05:47:44;;;;;;;56.40;22.40;;;1.80;99.90;;;;;;5083620;28;20442;-50
2020/12/12 05:50:11;;;;;;;47.17;21.13;;;1.90;99.90;;;;;;5072124;28;20446;-51
2020/12/12 05:52:40;;;;;;;56.37;21.20;;;1.90;99.90;;;;;;5077032;28;20454;-51
2020/12/12 05:55:07;;;;;;;52.87;21.63;;;1.90;99.90;;;;;;5070656;28;20553;-51
2020/12/12 05:57:34;;;;;;;46.60;20.20;;;1.90;99.90;;;;;;5073708;28;20824;-51
2020/12/12 06:00:04;;;;;;;54.10;22.67;;;2.00;99.90;;;;;;5069982;28;21176;-51
2020/12/12 06:02:35;;;;;;;43.90;19.87;;;2.00;99.90;;;;;;5070374;28;20511;-51
2020/12/12 06:05:05;;;;;;;49.63;22.50;;;2.00;99.90;;;;;;5070119;28;20554;-51
2020/12/12 06:07:34;;;;;;;48.30;22.30;;;2.10;99.90;;;;;;5070269;28;20446;-51
2020/12/12 06:10:02;;;;;;;67.07;28.07;;;2.20;99.90;;;;;;5085186;28;20430;-51
2020/12/12 06:12:29;;;;;;;58.73;24.97;;;2.20;99.90;;;;;;5088905;28;20434;-51
2020/12/12 06:14:57;;;;;;;47.03;22.67;;;2.10;99.90;;;;;;5089022;28;20975;-51
2020/12/12 06:17:43;;;;;;;45.00;19.70;;;2.10;99.90;;;;;;5082079;28;20438;-51
2020/12/12 06:20:14;;;;;;;42.67;17.83;;;2.40;99.90;;;;;;5074061;28;20570;-51
2020/12/12 06:22:42;;;;;;;44.70;19.00;;;2.40;99.90;;;;;;5080226;28;20443;-51
2020/12/12 06:25:14;;;;;;;44.20;20.00;;;2.20;99.90;;;;;;5073927;28;20452;-51
2020/12/12 06:27:48;;;;;;;39.83;19.73;;;2.10;99.90;;;;;;5077478;28;20891;-51
2020/12/12 06:30:16;;;;;;;44.00;20.20;;;2.20;99.90;;;;;;5093070;28;20431;-51
2020/12/12 06:32:42;;;;;;;46.43;20.17;;;2.20;99.90;;;;;;5093041;28;20437;-51
2020/12/12 06:35:13;;;;;;;39.47;18.53;;;2.40;99.90;;;;;;5092231;28;20547;-51
2020/12/12 06:37:41;;;;;;;53.80;25.57;;;2.60;99.90;;;;;;5092221;28;20783;-51
2020/12/12 06:40:09;;;;;;;44.50;20.70;;;2.50;99.90;;;;;;5081068;28;20470;-51
2020/12/12 06:42:37;;;;;;;42.90;19.17;;;2.30;99.90;;;;;;5082092;28;20447;-51
2020/12/12 06:45:20;;;;;;;42.20;19.50;;;2.40;99.90;;;;;;5092135;28;20880;-51
2020/12/12 06:47:48;;;;;;;42.07;20.47;;;2.40;99.90;;;;;;5074913;28;20966;-51
2020/12/12 06:50:16;;;;;;;49.60;21.60;;;2.40;99.90;;;;;;5091818;28;20483;-51
2020/12/12 06:52:43;;;;;;;46.63;20.37;;;2.30;99.90;;;;;;5092087;28;20487;-51
2020/12/12 06:55:12;;;;;;;43.87;20.60;;;2.30;99.90;;;;;;5092152;28;20470;-51
2020/12/12 06:57:41;;;;;;;46.40;20.53;;;2.30;99.90;;;;;;5092105;28;20443;-51
2020/12/12 07:00:17;;;;;;;37.93;19.50;;;2.30;99.90;;;;;;5091854;28;20488;-51
2020/12/12 07:02:57;;;;;;;38.90;18.03;;;2.40;99.90;;;;;;5091936;28;21011;-51
2020/12/12 07:05:25;;;;;;;45.17;20.03;;;2.50;99.90;;;;;;5084848;28;20516;-51
2020/12/12 07:07:53;;;;;;;46.00;19.93;;;2.50;99.90;;;;;;5073729;28;20451;-51
2020/12/12 07:10:20;;;;;;;38.03;17.87;;;2.50;99.90;;;;;;5072647;28;20438;-51
2020/12/12 07:12:47;;;;;;;39.33;18.90;;;2.50;99.90;;;;;;5072822;28;20497;-51
2020/12/12 07:15:13;;;;;;;36.93;17.43;;;2.50;99.90;;;;;;5084826;28;20462;-51
2020/12/12 07:17:41;;;;;;;35.43;16.97;;;2.50;99.90;;;;;;5072863;28;20439;-51
2020/12/12 07:20:09;;;;;;;41.00;17.17;;;2.40;99.90;;;;;;5080870;28;20916;-51
2020/12/12 07:22:36;;;;;;;34.10;16.10;;;2.40;99.90;;;;;;5091909;28;20434;-51
2020/12/12 07:25:06;;;;;;;39.03;17.10;;;2.60;99.90;;;;;;5089706;28;20473;-51
2020/12/12 07:27:33;;;;;;;34.70;16.67;;;2.70;99.90;;;;;;5079926;28;20422;-51
2020/12/12 07:30:00;;;;;;;33.37;16.00;;;2.60;99.90;;;;;;5073260;28;20493;-51
2020/12/12 07:32:27;;;;;;;33.50;15.57;;;2.70;99.90;;;;;;5072751;28;20522;-51
2020/12/12 07:35:00;;;;;;;25.03;13.70;;;2.60;99.90;;;;;;5083913;28;20466;-51
2020/12/12 07:37:27;;;;;;;32.63;13.77;;;2.70;99.90;;;;;;5072566;28;20431;-51
2020/12/12 07:39:53;;;;;;;25.07;12.40;;;2.70;99.90;;;;;;5072247;28;20539;-51
2020/12/12 07:42:24;;;;;;;26.53;12.30;;;2.60;99.90;;;;;;5090577;28;20450;-51
2020/12/12 07:44:57;;;;;;;28.30;13.43;;;2.60;99.90;;;;;;5090283;28;20545;-51
2020/12/12 07:47:23;;;;;;;31.53;14.10;;;2.70;99.90;;;;;;5073365;28;20542;-51
2020/12/12 07:49:50;;;;;;;28.63;13.37;;;2.90;99.90;;;;;;5084424;28;20451;-51
2020/12/12 07:52:18;;;;;;;27.37;14.13;;;3.00;99.90;;;;;;5072385;28;20512;-51
2020/12/12 07:54:47;;;;;;;27.40;13.67;;;3.00;99.90;;;;;;5072016;28;20459;-51
2020/12/12 07:57:15;;;;;;;30.97;16.47;;;3.00;99.90;;;;;;5089528;28;20454;-51
2020/12/12 07:59:43;;;;;;;29.87;15.10;;;3.00;99.90;;;;;;5071448;28;20566;-51
2020/12/12 08:02:11;;;;;;;27.80;13.43;;;3.20;99.90;;;;;;5072151;28;20451;-51
2020/12/12 08:04:38;;;;;;;25.70;13.10;;;3.30;99.90;;;;;;5071690;28;20532;-51
2020/12/12 08:07:12;;;;;;;24.03;12.93;;;3.20;99.90;;;;;;5071950;28;20996;-51
2020/12/12 08:09:46;;;;;;;25.47;12.83;;;3.20;99.90;;;;;;5078594;28;20492;-51
2020/12/12 08:12:30;;;;;;;28.80;13.87;;;3.30;99.90;;;;;;5089774;28;20529;-52
2020/12/12 08:15:01;;;;;;;25.30;12.43;;;3.20;99.90;;;;;;5081125;28;20518;-51
2020/12/12 08:17:30;;;;;;;25.40;12.97;;;3.30;99.90;;;;;;5089646;28;20932;-51
2020/12/12 08:19:57;;;;;;;25.57;13.20;;;3.40;99.90;;;;;;5089645;28;20506;-51
2020/12/12 08:22:25;;;;;;;24.80;12.80;;;3.40;99.90;;;;;;5089752;28;20438;-51
2020/12/12 08:24:52;;;;;;;26.13;13.37;;;3.50;99.90;;;;;;5089291;28;20458;-51
2020/12/12 08:27:23;;;;;;;18.60;10.03;;;3.40;99.90;;;;;;5089604;28;20442;-51
2020/12/12 08:29:51;;;;;;;25.33;12.20;;;3.50;99.90;;;;;;5089187;28;20437;-51
2020/12/12 08:32:29;;;;;;;21.73;10.17;;;3.40;99.90;;;;;;5089787;28;20446;-51
2020/12/12 08:35:14;;;;;;;16.43;9.30;;;3.60;99.90;;;;;;5088124;28;20598;-50
2020/12/12 08:37:49;;;;;;;17.80;9.77;;;3.70;99.90;;;;;;5088951;28;20955;-51
2020/12/12 08:40:16;;;;;;;19.50;10.60;;;3.70;99.90;;;;;;5084351;28;20900;-51
2020/12/12 08:42:58;;;;;;;15.43;9.27;;;3.80;99.90;;;;;;5069640;28;20489;-51
2020/12/12 08:45:26;;;;;;;17.27;9.13;;;3.80;99.90;;;;;;5069770;28;20462;-51
2020/12/12 08:48:02;;;;;;;19.80;10.53;;;3.90;99.90;;;;;;5070564;28;20439;-51
2020/12/12 08:50:31;;;;;;;24.00;13.10;;;4.10;99.90;;;;;;5069961;28;20848;-51
2020/12/12 08:53:28;;;;;;;15.70;8.60;;;4.00;99.90;;;;;;5070057;28;20492;-51
2020/12/12 08:55:58;;;;;;;16.83;8.90;;;3.90;99.90;;;;;;5069845;28;20821;-51
2020/12/12 08:58:35;;;;;;;17.10;9.33;;;3.90;99.90;;;;;;5069954;28;20500;-52
2020/12/12 09:01:13;;;;;;;16.63;9.10;;;3.90;99.90;;;;;;5070276;28;20482;-51
2020/12/12 09:03:54;;;;;;;14.40;8.20;;;3.90;99.90;;;;;;5071428;28;20477;-51
2020/12/12 09:06:21;;;;;;;14.37;8.77;;;3.80;99.90;;;;;;5071204;28;20443;-51
2020/12/12 09:08:48;;;;;;;16.33;9.30;;;4.00;99.90;;;;;;5070769;28;20488;-51
2020/12/12 09:11:16;;;;;;;15.07;9.10;;;4.00;99.90;;;;;;5070340;28;20978;-51
2020/12/12 09:13:43;;;;;;;15.53;8.60;;;4.10;99.90;;;;;;5069246;28;20508;-51
2020/12/12 09:16:10;;;;;;;15.93;9.80;;;4.10;99.90;;;;;;5088906;28;20453;-51
2020/12/12 09:18:44;;;;;;;18.33;10.77;;;4.20;99.90;;;;;;5088695;28;20495;-52
2020/12/12 09:21:12;;;;;;;14.70;9.30;;;4.40;99.90;;;;;;5091225;28;20491;-52
2020/12/12 09:23:39;;;;;;;18.87;10.80;;;4.60;99.90;;;;;;5091621;28;20492;-51
2020/12/12 09:26:07;;;;;;;18.83;9.77;;;4.50;99.90;;;;;;5090190;28;20446;-51
2020/12/12 09:28:33;;;;;;;13.60;8.80;;;4.40;99.90;;;;;;5088984;28;20445;-52
2020/12/12 09:31:00;;;;;;;14.60;8.27;;;4.40;99.90;;;;;;5089631;28;20483;-51
2020/12/12 09:33:27;;;;;;;15.80;8.60;;;4.60;99.90;;;;;;5088591;28;20530;-51
2020/12/12 09:35:53;;;;;;;14.83;8.77;;;4.60;99.90;;;;;;5088200;28;20446;-51
2020/12/12 09:38:21;;;;;;;16.20;8.17;;;4.70;99.90;;;;;;5088327;28;20441;-52
2020/12/12 09:40:49;;;;;;;17.60;9.80;;;4.70;99.90;;;;;;5088092;28;20523;-53
2020/12/12 09:43:16;;;;;;;13.80;8.47;;;4.80;99.90;;;;;;5088089;28;20442;-51
2020/12/12 09:45:45;;;;;;;13.63;8.07;;;4.90;99.90;;;;;;5088302;28;20476;-51
2020/12/12 09:48:12;;;;;;;12.00;7.27;;;5.00;99.90;;;;;;5086379;28;20447;-51
2020/12/12 09:50:38;;;;;;;14.93;8.57;;;5.00;99.90;;;;;;5077480;28;20434;-52
2020/12/12 09:53:06;;;;;;;13.77;7.90;;;5.10;99.90;;;;;;5090181;28;20433;-51
2020/12/12 09:55:35;;;;;;;9.67;6.40;;;5.30;99.90;;;;;;5092340;28;20458;-51
2020/12/12 09:58:04;;;;;;;13.40;7.93;;;5.20;99.90;;;;;;5093648;28;20958;-52
2020/12/12 10:00:32;;;;;;;13.50;7.77;;;5.20;99.90;;;;;;5092743;28;21047;-52
2020/12/12 10:02:59;;;;;;;14.10;8.10;;;5.30;99.90;;;;;;5093210;28;21001;-51
2020/12/12 10:05:25;;;;;;;16.30;8.37;;;5.30;99.90;;;;;;5093621;28;20532;-51
2020/12/12 10:07:55;;;;;;;14.00;7.37;;;5.30;99.90;;;;;;5093424;28;20544;-52
2020/12/12 10:10:22;;;;;;;12.30;7.60;;;5.30;99.90;;;;;;5093387;28;20475;-51
2020/12/12 10:12:49;;;;;;;11.13;7.63;;;5.40;99.90;;;;;;5093309;28;20456;-52
2020/12/12 10:15:17;;;;;;;10.83;6.97;;;5.50;99.90;;;;;;5093428;28;20475;-52
2020/12/12 10:17:44;;;;;;;12.10;6.90;;;5.60;99.90;;;;;;5092527;28;21009;-52
2020/12/12 10:20:11;;;;;;;11.77;6.93;;;5.60;99.90;;;;;;5093510;28;20926;-52
2020/12/12 10:22:37;;;;;;;8.93;6.20;;;5.70;99.90;;;;;;5085873;28;20461;-52
2020/12/12 10:25:04;;;;;;;11.83;6.00;;;5.80;99.90;;;;;;5093160;28;20484;-52
2020/12/12 10:27:31;;;;;;;9.60;6.97;;;5.90;99.90;;;;;;5088290;28;20456;-53
2020/12/12 10:29:58;;;;;;;10.13;6.37;;;6.00;99.90;;;;;;5093053;28;20443;-52
2020/12/12 10:32:25;;;;;;;10.00;6.40;;;6.20;99.90;;;;;;5093647;28;20441;-52
2020/12/12 10:34:52;;;;;;;10.60;6.20;;;6.30;99.90;;;;;;5093031;28;20475;-52
2020/12/12 10:37:18;;;;;;;9.40;6.00;;;6.30;99.90;;;;;;5092757;28;20448;-52
2020/12/12 10:39:51;;;;;;;8.30;6.07;;;6.40;99.90;;;;;;5092796;28;20446;-52
2020/12/12 10:42:18;;;;;;;11.00;6.93;;;6.50;99.90;;;;;;5092361;28;20449;-52
2020/12/12 10:44:44;;;;;;;8.50;6.30;;;6.60;99.90;;;;;;5092402;28;20518;-52
2020/12/12 10:47:12;;;;;;;14.77;8.50;;;6.70;99.90;;;;;;5092003;28;20442;-52
2020/12/12 10:49:38;;;;;;;9.80;6.47;;;6.70;99.90;;;;;;5092711;28;20476;-52
2020/12/12 10:52:05;;;;;;;11.40;7.10;;;6.70;99.90;;;;;;5090721;28;20446;-52
2020/12/12 10:54:32;;;;;;;15.80;8.30;;;6.80;99.90;;;;;;5092020;28;20562;-52
2020/12/12 10:56:59;;;;;;;15.97;9.37;;;6.90;99.90;;;;;;5091673;28;20967;-52
2020/12/12 10:59:26;;;;;;;17.90;9.60;;;6.80;99.90;;;;;;5092460;28;20547;-52
2020/12/12 11:01:54;;;;;;;13.60;8.23;;;6.80;99.90;;;;;;5092565;28;20481;-52
2020/12/12 11:04:21;;;;;;;17.67;9.73;;;6.70;99.90;;;;;;5086882;28;21025;-52
2020/12/12 11:06:48;;;;;;;16.63;8.37;;;6.60;99.90;;;;;;5092194;28;20945;-52
2020/12/12 11:09:14;;;;;;;17.17;8.63;;;6.60;99.90;;;;;;5092083;28;20512;-51
2020/12/12 11:11:41;;;;;;;14.10;8.70;;;6.50;99.90;;;;;;5076736;28;20491;-53
2020/12/12 11:14:08;;;;;;;15.17;8.63;;;6.60;99.90;;;;;;5090579;28;20845;-53
2020/12/12 11:16:35;;;;;;;13.17;7.77;;;6.60;99.90;;;;;;5081916;28;20438;-54
2020/12/12 11:19:03;;;;;;;10.77;6.93;;;6.70;99.90;;;;;;5077174;28;20546;-53
2020/12/12 11:21:31;;;;;;;13.50;8.60;;;6.80;99.90;;;;;;5086218;28;20482;-53
2020/12/12 11:24:00;;;;;;;11.03;7.87;;;6.80;99.90;;;;;;5089968;28;20497;-53
2020/12/12 11:26:26;;;;;;;9.30;6.47;;;6.80;99.90;;;;;;5090533;28;20441;-53
2020/12/12 11:28:53;;;;;;;9.23;6.30;;;6.90;99.90;;;;;;5085961;28;20854;-53
2020/12/12 11:31:23;;;;;;;8.63;5.90;;;7.00;99.90;;;;;;5080390;28;20475;-51
2020/12/12 11:33:56;;;;;;;10.03;6.20;;;6.80;99.90;;;;;;5072615;28;20502;-51
2020/12/12 11:36:36;;;;;;;9.10;5.90;;;6.70;99.90;;;;;;5070632;28;20443;-51
2020/12/12 11:39:09;;;;;;;9.20;6.37;;;6.70;99.90;;;;;;5085256;28;20461;-51
2020/12/12 11:42:00;;;;;;;9.20;5.30;;;6.70;99.90;;;;;;5091547;28;20540;-50
2020/12/12 11:44:47;;;;;;;9.40;6.50;;;6.50;99.90;;;;;;5074114;28;20485;-51
2020/12/12 11:47:14;;;;;;;7.30;5.30;;;6.50;99.90;;;;;;5078346;28;20438;-51
2020/12/12 11:49:42;;;;;;;8.10;5.70;;;6.50;99.90;;;;;;5091754;28;20445;-52
2020/12/12 11:52:08;;;;;;;5.80;4.90;;;6.30;99.90;;;;;;5091668;28;20442;-52
2020/12/12 11:54:36;;;;;;;7.30;4.53;;;6.20;99.90;;;;;;5091836;28;20470;-51
2020/12/12 11:57:04;;;;;;;7.57;5.00;;;6.20;99.90;;;;;;5091932;28;20445;-51
2020/12/12 11:59:31;;;;;;;10.20;6.50;;;6.30;99.90;;;;;;5091086;28;20545;-51
2020/12/12 12:01:58;;;;;;;10.17;6.67;;;5.90;99.90;;;;;;5090022;28;20485;-51
2020/12/12 12:04:24;;;;;;;12.70;7.33;;;5.80;99.90;;;;;;5090908;28;20485;-51
2020/12/12 12:06:51;;;;;;;9.80;6.50;;;5.90;99.90;;;;;;5091412;28;20484;-51
2020/12/12 12:09:23;;;;;;;10.17;6.20;;;6.00;99.90;;;;;;5088890;28;20454;-51
2020/12/12 12:11:52;;;;;;;12.90;7.80;;;6.00;99.90;;;;;;5091324;28;20813;-51
2020/12/12 12:14:18;;;;;;;11.70;6.73;;;6.00;99.90;;;;;;5090467;28;20505;-51
2020/12/12 12:16:45;;;;;;;13.23;7.70;;;6.00;99.90;;;;;;5091357;28;20449;-51
2020/12/12 12:19:12;;;;;;;14.40;8.10;;;6.00;99.90;;;;;;5090959;28;20451;-51
2020/12/12 12:21:40;;;;;;;11.00;7.10;;;6.00;99.90;;;;;;5091264;28;20487;-52
2020/12/12 12:24:09;;;;;;;11.30;7.70;;;6.00;99.90;;;;;;5090738;28;20832;-51
2020/12/12 12:26:37;;;;;;;14.17;9.03;;;6.10;99.90;;;;;;5090831;28;20467;-52
2020/12/12 12:29:05;;;;;;;13.30;7.63;;;6.10;99.90;;;;;;5090210;28;20450;-51
2020/12/12 12:31:32;;;;;;;16.23;9.97;;;6.10;99.90;;;;;;5077366;28;20450;-51
2020/12/12 12:33:58;;;;;;;12.90;8.33;;;6.20;99.90;;;;;;5078041;28;20474;-51
2020/12/12 12:36:26;;;;;;;13.13;7.20;;;6.10;99.90;;;;;;5078636;28;20461;-51
2020/12/12 12:38:53;;;;;;;12.03;7.97;;;6.10;99.90;;;;;;5075169;28;20886;-51
2020/12/12 12:41:20;;;;;;;13.40;8.20;;;6.20;99.90;;;;;;5068716;28;20461;-52
2020/12/12 12:43:51;;;;;;;11.60;8.37;;;6.20;99.90;;;;;;5079954;28;20219;-52
2020/12/12 12:46:19;;;;;;;12.68;8.40;;;6.30;99.90;;;;;;5068878;28;20430;-52